createdAt,value
2017-05-30T00:01:01.877Z,22.31
2017-05-30T00:02:11.162Z,22.17
2017-05-30T00:03:20.379Z,22.14
2017-05-30T00:04:29.351Z,22.18
2017-05-30T00:05:38.311Z,22.2
2017-05-30T00:06:47.277Z,22.15
2017-05-30T00:07:56.250Z,22.17
2017-05-30T00:09:05.469Z,22.15
2017-05-30T00:10:14.433Z,22.18
2017-05-30T00:11:23.402Z,22.15
2017-05-30T00:12:32.364Z,22.15
2017-05-30T00:13:41.422Z,22.18
2017-05-30T00:14:50.710Z,22.15
2017-05-30T00:15:59.682Z,22.18
2017-05-30T00:17:08.644Z,22.15
2017-05-30T00:18:17.616Z,22.22
2017-05-30T00:19:26.581Z,22.15
2017-05-30T00:20:35.790Z,22.17
2017-05-30T00:21:44.756Z,22.15
2017-05-30T00:22:53.719Z,22.12
2017-05-30T00:24:02.682Z,22.15
2017-05-30T00:25:11.730Z,22.14
2017-05-30T00:26:20.945Z,22.1
2017-05-30T00:27:29.905Z,22.15
2017-05-30T00:28:38.875Z,22.14
2017-05-30T00:29:47.843Z,22.18
2017-05-30T00:30:56.817Z,22.24
2017-05-30T00:32:06.033Z,22.21
2017-05-30T00:33:14.996Z,22.14
2017-05-30T00:34:24.048Z,22.2
2017-05-30T00:35:33.105Z,22.2
2017-05-30T00:36:42.072Z,22.21
2017-05-30T00:37:51.287Z,22.17
2017-05-30T00:39:00.254Z,22.27
2017-05-30T00:40:09.228Z,22.22
2017-05-30T00:41:18.192Z,22.3
2017-05-30T00:42:27.244Z,22.31
2017-05-30T00:43:36.465Z,22.22
2017-05-30T00:44:45.440Z,22.22
2017-05-30T00:45:54.402Z,22.25
2017-05-30T00:47:03.694Z,22.28
2017-05-30T00:48:12.661Z,22.2
2017-05-30T00:49:21.883Z,22.27
2017-05-30T00:50:30.848Z,22.22
2017-05-30T00:51:39.900Z,22.25
2017-05-30T00:52:48.863Z,22.4
2017-05-30T00:53:57.945Z,22.36
2017-05-30T00:55:07.162Z,22.33
2017-05-30T00:56:16.124Z,22.36
2017-05-30T00:57:25.175Z,22.33
2017-05-30T00:58:34.227Z,22.31
2017-05-30T00:59:43.199Z,22.27
2017-05-30T01:00:52.451Z,22.22
2017-05-30T01:02:01.422Z,22.22
2017-05-30T01:03:10.455Z,22.33
2017-05-30T01:04:19.637Z,22.28
2017-05-30T01:05:28.739Z,22.25
2017-05-30T01:06:38.289Z,22.21
2017-05-30T01:07:47.406Z,22.14
2017-05-30T01:08:56.469Z,22.22
2017-05-30T01:10:05.607Z,22.15
2017-05-30T01:11:14.674Z,22.1
2017-05-30T01:12:23.913Z,22.1
2017-05-30T01:13:32.885Z,22.15
2017-05-30T01:14:41.852Z,22.02
2017-05-30T01:15:51.016Z,22.03
2017-05-30T01:17:00.192Z,22.05
2017-05-30T01:18:09.494Z,22.09
2017-05-30T01:19:18.535Z,22.05
2017-05-30T01:20:27.595Z,22.02
2017-05-30T01:21:36.563Z,21.98
2017-05-30T01:22:45.526Z,21.96
2017-05-30T01:23:54.739Z,22
2017-05-30T01:25:03.708Z,21.96
2017-05-30T01:26:12.672Z,21.91
2017-05-30T01:27:21.640Z,21.94
2017-05-30T01:28:30.926Z,21.84
2017-05-30T01:29:40.145Z,21.86
2017-05-30T01:30:49.115Z,21.83
2017-05-30T01:31:58.414Z,21.8
2017-05-30T01:33:07.376Z,21.75
2017-05-30T01:34:17.493Z,21.77
2017-05-30T01:35:26.716Z,21.84
2017-05-30T01:36:36.507Z,21.75
2017-05-30T01:37:46.181Z,21.8
2017-05-30T01:38:55.157Z,21.79
2017-05-30T01:40:04.226Z,21.74
2017-05-30T01:41:15.401Z,21.77
2017-05-30T01:42:25.609Z,21.77
2017-05-30T01:43:35.699Z,21.77
2017-05-30T01:44:44.975Z,21.8
2017-05-30T01:45:53.948Z,21.67
2017-05-30T01:47:04.563Z,21.68
2017-05-30T01:48:13.947Z,21.65
2017-05-30T01:49:22.909Z,21.8
2017-05-30T01:50:32.062Z,21.74
2017-05-30T01:51:41.111Z,21.75
2017-05-30T01:52:50.895Z,21.74
2017-05-30T01:54:02.320Z,21.72
2017-05-30T01:55:11.999Z,21.82
2017-05-30T01:56:21.432Z,21.74
2017-05-30T01:57:30.397Z,21.72
2017-05-30T01:58:41.098Z,21.74
2017-05-30T01:59:50.091Z,21.75
2017-05-30T02:00:59.092Z,21.8
2017-05-30T02:02:08.865Z,21.72
2017-05-30T02:03:18.828Z,21.75
2017-05-30T02:04:28.088Z,21.71
2017-05-30T02:05:37.449Z,21.74
2017-05-30T02:06:47.580Z,21.83
2017-05-30T02:07:56.944Z,21.84
2017-05-30T02:09:08.486Z,21.75
2017-05-30T02:10:19.312Z,21.83
2017-05-30T02:11:28.281Z,21.79
2017-05-30T02:12:37.247Z,21.82
2017-05-30T02:13:46.220Z,21.86
2017-05-30T02:14:55.347Z,21.75
2017-05-30T02:16:04.774Z,21.86
2017-05-30T02:17:14.709Z,21.79
2017-05-30T02:18:23.691Z,21.79
2017-05-30T02:19:32.958Z,21.82
2017-05-30T02:20:42.765Z,21.84
2017-05-30T02:21:54.069Z,21.77
2017-05-30T02:23:05.182Z,21.82
2017-05-30T02:24:14.145Z,21.84
2017-05-30T02:25:23.108Z,21.8
2017-05-30T02:26:32.068Z,21.84
2017-05-30T02:27:41.300Z,21.86
2017-05-30T02:28:50.277Z,21.88
2017-05-30T02:29:59.339Z,21.82
2017-05-30T02:31:08.307Z,21.77
2017-05-30T02:32:17.267Z,21.82
2017-05-30T02:33:26.482Z,21.8
2017-05-30T02:34:35.777Z,21.8
2017-05-30T02:35:44.741Z,21.79
2017-05-30T02:36:53.705Z,21.83
2017-05-30T02:38:02.669Z,21.79
2017-05-30T02:39:11.887Z,21.8
2017-05-30T02:40:20.847Z,21.83
2017-05-30T02:41:29.811Z,21.79
2017-05-30T02:42:38.806Z,21.82
2017-05-30T02:43:47.768Z,21.82
2017-05-30T02:44:56.984Z,21.72
2017-05-30T02:46:05.946Z,21.75
2017-05-30T02:47:14.913Z,21.82
2017-05-30T02:48:23.876Z,21.74
2017-05-30T02:49:32.845Z,21.68
2017-05-30T02:50:42.056Z,21.72
2017-05-30T02:51:51.022Z,21.8
2017-05-30T02:52:59.993Z,21.74
2017-05-30T02:54:08.955Z,21.79
2017-05-30T02:55:17.916Z,21.75
2017-05-30T02:56:27.136Z,21.77
2017-05-30T02:57:36.101Z,21.72
2017-05-30T02:58:45.075Z,21.75
2017-05-30T02:59:54.365Z,21.75
2017-05-30T03:01:03.335Z,21.79
2017-05-30T03:02:12.553Z,21.74
2017-05-30T03:03:21.520Z,21.74
2017-05-30T03:04:30.487Z,21.79
2017-05-30T03:05:39.452Z,21.75
2017-05-30T03:06:48.509Z,21.82
2017-05-30T03:07:57.826Z,21.77
2017-05-30T03:09:06.803Z,21.79
2017-05-30T03:10:15.771Z,21.8
2017-05-30T03:11:24.740Z,21.83
2017-05-30T03:12:33.706Z,21.79
2017-05-30T03:13:42.920Z,21.79
2017-05-30T03:14:51.883Z,21.8
2017-05-30T03:16:00.849Z,21.74
2017-05-30T03:17:09.806Z,21.8
2017-05-30T03:18:18.771Z,21.84
2017-05-30T03:19:27.988Z,21.83
2017-05-30T03:20:36.956Z,21.8
2017-05-30T03:21:45.919Z,21.82
2017-05-30T03:22:54.883Z,21.79
2017-05-30T03:24:03.849Z,21.77
2017-05-30T03:25:13.207Z,21.72
2017-05-30T03:26:22.172Z,21.75
2017-05-30T03:27:31.133Z,21.82
2017-05-30T03:28:40.093Z,21.74
2017-05-30T03:29:49.072Z,21.74
2017-05-30T03:30:58.286Z,21.72
2017-05-30T03:32:07.254Z,21.72
2017-05-30T03:33:16.219Z,21.71
2017-05-30T03:34:25.213Z,21.61
2017-05-30T03:35:34.180Z,21.74
2017-05-30T03:36:43.392Z,21.64
2017-05-30T03:37:52.686Z,21.62
2017-05-30T03:39:01.677Z,21.67
2017-05-30T03:40:10.693Z,21.61
2017-05-30T03:41:19.661Z,21.71
2017-05-30T03:42:28.873Z,21.64
2017-05-30T03:43:37.833Z,21.59
2017-05-30T03:44:46.803Z,21.61
2017-05-30T03:45:55.772Z,21.62
2017-05-30T03:47:04.732Z,21.75
2017-05-30T03:48:13.943Z,21.61
2017-05-30T03:49:22.911Z,21.69
2017-05-30T03:50:31.875Z,21.74
2017-05-30T03:51:40.842Z,21.74
2017-05-30T03:52:49.810Z,21.65
2017-05-30T03:53:59.043Z,21.62
2017-05-30T03:55:08.326Z,21.72
2017-05-30T03:56:17.292Z,21.64
2017-05-30T03:57:26.256Z,21.64
2017-05-30T03:58:35.223Z,21.69
2017-05-30T03:59:44.442Z,21.72
2017-05-30T04:00:53.406Z,21.61
2017-05-30T04:02:02.375Z,21.69
2017-05-30T04:03:11.423Z,21.58
2017-05-30T04:04:20.391Z,21.64
2017-05-30T04:05:29.610Z,21.71
2017-05-30T04:06:38.576Z,21.67
2017-05-30T04:07:47.542Z,21.65
2017-05-30T04:08:56.839Z,21.62
2017-05-30T04:10:05.807Z,21.65
2017-05-30T04:11:15.023Z,21.58
2017-05-30T04:12:23.989Z,21.59
2017-05-30T04:13:33.015Z,21.64
2017-05-30T04:14:41.980Z,21.61
2017-05-30T04:15:50.948Z,21.62
2017-05-30T04:17:00.210Z,21.56
2017-05-30T04:18:09.183Z,21.59
2017-05-30T04:19:18.141Z,21.62
2017-05-30T04:20:27.106Z,21.59
2017-05-30T04:21:36.158Z,21.62
2017-05-30T04:22:45.369Z,21.58
2017-05-30T04:23:54.333Z,21.59
2017-05-30T04:25:03.299Z,21.56
2017-05-30T04:26:12.257Z,21.62
2017-05-30T04:27:21.224Z,21.56
2017-05-30T04:28:30.487Z,21.67
2017-05-30T04:29:39.461Z,21.61
2017-05-30T04:30:48.427Z,21.65
2017-05-30T04:31:57.477Z,21.62
2017-05-30T04:33:06.441Z,21.72
2017-05-30T04:34:15.650Z,21.74
2017-05-30T04:35:24.703Z,21.69
2017-05-30T04:36:33.671Z,21.74
2017-05-30T04:37:42.640Z,21.71
2017-05-30T04:38:51.604Z,21.65
2017-05-30T04:40:00.816Z,21.79
2017-05-30T04:41:09.789Z,21.77
2017-05-30T04:42:19.070Z,21.83
2017-05-30T04:43:28.359Z,21.79
2017-05-30T04:44:37.467Z,21.84
2017-05-30T04:45:46.738Z,21.82
2017-05-30T04:46:55.784Z,21.8
2017-05-30T04:48:04.746Z,21.84
2017-05-30T04:49:13.719Z,21.83
2017-05-30T04:50:22.687Z,21.94
2017-05-30T04:51:31.906Z,21.88
2017-05-30T04:52:40.878Z,21.84
2017-05-30T04:53:49.847Z,21.92
2017-05-30T04:54:58.811Z,21.92
2017-05-30T04:56:07.770Z,21.91
2017-05-30T04:57:16.985Z,21.86
2017-05-30T04:58:25.941Z,21.83
2017-05-30T04:59:34.910Z,21.88
2017-05-30T05:00:43.874Z,21.94
2017-05-30T05:01:52.925Z,21.94
2017-05-30T05:03:02.142Z,21.99
2017-05-30T05:04:11.114Z,21.98
2017-05-30T05:05:20.086Z,22
2017-05-30T05:06:29.048Z,21.99
2017-05-30T05:07:38.011Z,22.02
2017-05-30T05:08:47.227Z,21.98
2017-05-30T05:09:56.197Z,22.09
2017-05-30T05:11:05.162Z,22.15
2017-05-30T05:12:14.128Z,22.18
2017-05-30T05:13:23.089Z,22.2
2017-05-30T05:14:32.393Z,22.25
2017-05-30T05:15:41.363Z,22.25
2017-05-30T05:16:50.325Z,22.24
2017-05-30T05:17:59.287Z,22.35
2017-05-30T05:19:08.258Z,22.35
2017-05-30T05:20:17.483Z,22.36
2017-05-30T05:21:26.446Z,22.36
2017-05-30T05:22:35.416Z,22.31
2017-05-30T05:23:44.382Z,22.31
2017-05-30T05:24:53.349Z,22.47
2017-05-30T05:26:02.566Z,22.51
2017-05-30T05:27:11.535Z,22.43
2017-05-30T05:28:20.500Z,22.54
2017-05-30T05:29:29.466Z,22.55
2017-05-30T05:30:38.424Z,22.68
2017-05-30T05:31:47.643Z,22.6
2017-05-30T05:32:56.613Z,22.7
2017-05-30T05:34:05.578Z,22.75
2017-05-30T05:35:14.544Z,22.73
2017-05-30T05:36:23.506Z,22.75
2017-05-30T05:37:32.721Z,22.72
2017-05-30T05:38:41.682Z,22.7
2017-05-30T05:39:50.652Z,22.67
2017-05-30T05:40:59.943Z,22.7
2017-05-30T05:42:08.912Z,22.75
2017-05-30T05:43:18.131Z,22.92
2017-05-30T05:44:27.185Z,22.88
2017-05-30T05:45:36.150Z,22.9
2017-05-30T05:46:45.209Z,22.95
2017-05-30T05:47:54.172Z,22.88
2017-05-30T05:49:03.853Z,22.98
2017-05-30T05:50:12.901Z,22.92
2017-05-30T05:51:21.865Z,23.02
2017-05-30T05:52:30.833Z,23
2017-05-30T05:53:39.837Z,22.94
2017-05-30T05:54:49.467Z,22.9
2017-05-30T05:55:58.521Z,23.05
2017-05-30T05:57:07.850Z,23.07
2017-05-30T05:58:17.007Z,23.04
2017-05-30T05:59:25.972Z,23.13
2017-05-30T06:00:35.242Z,23.12
2017-05-30T06:01:44.204Z,23.13
2017-05-30T06:02:53.168Z,23.12
2017-05-30T06:04:02.201Z,23.17
2017-05-30T06:05:11.163Z,23.25
2017-05-30T06:06:20.377Z,23.22
2017-05-30T06:07:29.351Z,23.33
2017-05-30T06:08:38.318Z,23.35
2017-05-30T06:09:47.372Z,23.33
2017-05-30T06:10:56.336Z,23.42
2017-05-30T06:12:05.551Z,23.38
2017-05-30T06:13:14.518Z,23.48
2017-05-30T06:14:23.486Z,23.46
2017-05-30T06:15:32.453Z,23.43
2017-05-30T06:16:41.432Z,23.51
2017-05-30T06:17:50.696Z,23.54
2017-05-30T06:18:59.992Z,23.5
2017-05-30T06:20:08.954Z,23.55
2017-05-30T06:21:18.805Z,23.66
2017-05-30T06:22:30.694Z,23.63
2017-05-30T06:23:39.910Z,23.66
2017-05-30T06:24:48.881Z,23.8
2017-05-30T06:25:57.848Z,23.84
2017-05-30T06:27:06.820Z,23.85
2017-05-30T06:28:15.787Z,23.84
2017-05-30T06:29:25.055Z,23.88
2017-05-30T06:30:34.108Z,23.9
2017-05-30T06:31:43.069Z,23.93
2017-05-30T06:32:52.031Z,23.88
2017-05-30T06:34:00.998Z,23.88
2017-05-30T06:35:10.214Z,23.91
2017-05-30T06:36:19.187Z,23.95
2017-05-30T06:37:28.154Z,23.97
2017-05-30T06:38:37.120Z,24.09
2017-05-30T06:39:46.170Z,24
2017-05-30T06:40:55.462Z,24.12
2017-05-30T06:42:04.568Z,24.12
2017-05-30T06:43:13.540Z,24.09
2017-05-30T06:44:22.510Z,24.22
2017-05-30T06:45:31.476Z,24.27
2017-05-30T06:46:42.742Z,24.3
2017-05-30T06:47:55.607Z,24.32
2017-05-30T06:49:04.573Z,24.4
2017-05-30T06:50:13.578Z,24.46
2017-05-30T06:51:22.562Z,24.46
2017-05-30T06:52:31.778Z,24.47
2017-05-30T06:53:40.740Z,24.52
2017-05-30T06:54:49.711Z,24.57
2017-05-30T06:55:58.676Z,24.52
2017-05-30T06:57:07.643Z,24.55
2017-05-30T06:58:16.858Z,24.57
2017-05-30T06:59:25.841Z,24.65
2017-05-30T07:00:34.814Z,24.62
2017-05-30T07:01:43.781Z,24.76
2017-05-30T07:02:52.746Z,24.73
2017-05-30T07:04:01.967Z,24.73
2017-05-30T07:05:10.933Z,24.73
2017-05-30T07:06:19.904Z,24.85
2017-05-30T07:07:28.874Z,24.76
2017-05-30T07:08:37.839Z,24.8
2017-05-30T07:09:47.113Z,24.95
2017-05-30T07:10:56.082Z,24.9
2017-05-30T07:12:05.044Z,24.95
2017-05-30T07:13:14.007Z,24.88
2017-05-30T07:14:23.039Z,24.96
2017-05-30T07:15:32.253Z,25.05
2017-05-30T07:16:41.220Z,24.96
2017-05-30T07:17:50.191Z,25.08
2017-05-30T07:18:59.173Z,25.08
2017-05-30T07:20:08.479Z,25.09
2017-05-30T07:21:17.703Z,25.05
2017-05-30T07:22:26.670Z,25.14
2017-05-30T07:23:35.638Z,25.17
2017-05-30T07:24:44.942Z,25.21
2017-05-30T07:25:53.913Z,25.21
2017-05-30T07:27:03.456Z,25.23
2017-05-30T07:28:12.422Z,25.32
2017-05-30T07:29:21.391Z,25.42
2017-05-30T07:30:30.493Z,25.43
2017-05-30T07:31:39.782Z,25.46
2017-05-30T07:32:49.005Z,25.61
2017-05-30T07:33:57.972Z,25.6
2017-05-30T07:35:06.942Z,25.55
2017-05-30T07:36:15.912Z,25.57
2017-05-30T07:37:24.876Z,25.67
2017-05-30T07:38:34.093Z,25.73
2017-05-30T07:39:43.059Z,25.8
2017-05-30T07:40:52.027Z,25.69
2017-05-30T07:42:00.997Z,25.79
2017-05-30T07:43:09.961Z,25.79
2017-05-30T07:44:19.178Z,25.83
2017-05-30T07:45:28.156Z,25.8
2017-05-30T07:46:37.132Z,25.87
2017-05-30T07:47:46.098Z,25.88
2017-05-30T07:48:55.076Z,25.9
2017-05-30T07:50:04.298Z,25.94
2017-05-30T07:51:13.302Z,25.97
2017-05-30T07:52:22.276Z,25.91
2017-05-30T07:53:31.240Z,25.95
2017-05-30T07:54:40.208Z,25.95
2017-05-30T07:55:49.427Z,25.95
2017-05-30T07:56:58.398Z,25.91
2017-05-30T07:58:07.371Z,25.92
2017-05-30T07:59:16.335Z,25.97
2017-05-30T08:00:25.301Z,26.07
2017-05-30T08:01:34.543Z,26.07
2017-05-30T08:02:43.514Z,26.07
2017-05-30T08:03:52.484Z,26.1
2017-05-30T08:05:01.789Z,26.13
2017-05-30T08:06:10.762Z,26.1
2017-05-30T08:07:19.981Z,26.09
2017-05-30T08:08:29.035Z,26.1
2017-05-30T08:09:38.090Z,26.17
2017-05-30T08:10:47.058Z,26.12
2017-05-30T08:11:56.027Z,26.12
2017-05-30T08:13:05.296Z,26.18
2017-05-30T08:14:14.258Z,26.18
2017-05-30T08:15:23.250Z,26.15
2017-05-30T08:16:32.216Z,26.26
2017-05-30T08:17:41.246Z,26.18
2017-05-30T08:18:50.518Z,26.18
2017-05-30T08:19:59.487Z,26.3
2017-05-30T08:21:08.465Z,26.25
2017-05-30T08:22:17.435Z,26.2
2017-05-30T08:23:26.487Z,26.36
2017-05-30T08:24:35.708Z,26.35
2017-05-30T08:25:44.674Z,26.32
2017-05-30T08:26:53.647Z,26.45
2017-05-30T08:28:02.617Z,26.4
2017-05-30T08:29:11.586Z,26.54
2017-05-30T08:30:20.812Z,26.55
2017-05-30T08:31:29.778Z,26.51
2017-05-30T08:32:38.756Z,26.5
2017-05-30T08:33:47.725Z,26.52
2017-05-30T08:34:56.694Z,26.52
2017-05-30T08:36:06.267Z,26.6
2017-05-30T08:37:15.233Z,26.66
2017-05-30T08:38:24.196Z,26.7
2017-05-30T08:39:33.164Z,26.75
2017-05-30T08:40:42.149Z,26.77
2017-05-30T08:41:51.373Z,26.82
2017-05-30T08:43:00.346Z,26.87
2017-05-30T08:44:09.313Z,26.92
2017-05-30T08:45:18.283Z,27.06
2017-05-30T08:46:27.248Z,27.18
2017-05-30T08:47:36.468Z,27.13
2017-05-30T08:48:45.439Z,27.18
2017-05-30T08:49:54.409Z,27.24
2017-05-30T08:51:03.713Z,27.47
2017-05-30T08:52:13.006Z,27.46
2017-05-30T08:53:22.226Z,27.47
2017-05-30T08:54:31.197Z,27.57
2017-05-30T08:55:40.168Z,27.63
2017-05-30T08:56:49.138Z,27.57
2017-05-30T08:57:58.100Z,27.62
2017-05-30T08:59:07.324Z,27.6
2017-05-30T09:00:16.291Z,27.66
2017-05-30T09:01:25.348Z,27.6
2017-05-30T09:02:34.408Z,27.66
2017-05-30T09:03:43.378Z,27.6
2017-05-30T09:04:52.599Z,27.65
2017-05-30T09:06:01.577Z,27.78
2017-05-30T09:07:10.545Z,27.75
2017-05-30T09:08:19.519Z,27.67
2017-05-30T09:09:28.500Z,27.67
2017-05-30T09:10:38.140Z,27.75
2017-05-30T09:11:47.111Z,27.74
2017-05-30T09:12:56.086Z,27.79
2017-05-30T09:14:05.052Z,27.87
2017-05-30T09:15:14.029Z,27.82
2017-05-30T09:16:23.255Z,27.82
2017-05-30T09:17:32.220Z,27.84
2017-05-30T09:18:41.186Z,27.87
2017-05-30T09:19:51.093Z,27.85
2017-05-30T09:21:00.550Z,27.88
2017-05-30T09:22:09.818Z,27.97
2017-05-30T09:23:18.787Z,27.94
2017-05-30T09:24:27.752Z,27.94
2017-05-30T09:25:37.063Z,28.02
2017-05-30T09:26:46.073Z,28.04
2017-05-30T09:27:55.291Z,28.12
2017-05-30T09:29:04.263Z,28.17
2017-05-30T09:30:13.234Z,28.21
2017-05-30T09:31:22.198Z,28.25
2017-05-30T09:32:31.173Z,28.22
2017-05-30T09:33:40.717Z,28.22
2017-05-30T09:34:50.245Z,28.36
2017-05-30T09:35:59.680Z,28.29
2017-05-30T09:37:09.218Z,28.21
2017-05-30T09:38:18.584Z,28.24
2017-05-30T09:39:28.335Z,28.18
2017-05-30T09:40:38.076Z,28.3
2017-05-30T09:41:47.517Z,28.27
2017-05-30T09:42:56.821Z,28.29
2017-05-30T09:44:06.403Z,28.29
2017-05-30T09:45:16.073Z,28.36
2017-05-30T09:46:25.530Z,28.36
2017-05-30T09:47:37.624Z,28.29
2017-05-30T09:48:56.176Z,28.31
2017-05-30T09:50:18.953Z,28.29
2017-05-30T09:51:35.048Z,28.24
2017-05-30T09:52:52.435Z,28.22
2017-05-30T09:54:11.362Z,28.19
2017-05-30T09:55:29.517Z,28.29
2017-05-30T09:56:45.611Z,28.29
2017-05-30T09:57:55.151Z,28.36
2017-05-30T09:59:05.057Z,28.43
2017-05-30T10:00:14.527Z,28.4
2017-05-30T10:01:24.307Z,28.51
2017-05-30T10:02:34.057Z,28.58
2017-05-30T10:03:43.828Z,28.61
2017-05-30T10:04:53.337Z,28.59
2017-05-30T10:06:02.503Z,28.58
2017-05-30T10:07:11.991Z,28.56
2017-05-30T10:08:20.956Z,28.43
2017-05-30T10:09:29.922Z,28.33
2017-05-30T10:10:38.893Z,28.34
2017-05-30T10:11:47.865Z,28.33
2017-05-30T10:12:57.091Z,28.21
2017-05-30T10:14:06.057Z,28.18
2017-05-30T10:15:15.022Z,28.12
2017-05-30T10:16:23.982Z,28.04
2017-05-30T10:17:33.007Z,28.09
2017-05-30T10:18:42.226Z,28.03
2017-05-30T10:19:51.196Z,27.96
2017-05-30T10:21:00.159Z,27.88
2017-05-30T10:22:09.121Z,27.9
2017-05-30T10:23:18.093Z,27.87
2017-05-30T10:24:27.309Z,27.88
2017-05-30T10:25:36.276Z,27.85
2017-05-30T10:26:45.244Z,27.81
2017-05-30T10:27:54.213Z,27.67
2017-05-30T10:29:03.182Z,27.77
2017-05-30T10:30:12.403Z,27.65
2017-05-30T10:31:21.371Z,27.67
2017-05-30T10:32:30.351Z,27.72
2017-05-30T10:33:39.326Z,27.69
2017-05-30T10:34:48.289Z,27.74
2017-05-30T10:35:57.503Z,27.66
2017-05-30T10:37:06.471Z,27.74
2017-05-30T10:38:15.434Z,27.75
2017-05-30T10:39:24.399Z,27.72
2017-05-30T10:40:33.375Z,27.6
2017-05-30T10:41:42.589Z,27.57
2017-05-30T10:42:51.616Z,27.62
2017-05-30T10:44:00.580Z,27.51
2017-05-30T10:45:09.541Z,27.54
2017-05-30T10:46:18.512Z,27.51
2017-05-30T10:47:27.726Z,27.41
2017-05-30T10:48:36.700Z,27.37
2017-05-30T10:49:45.665Z,27.31
2017-05-30T10:50:54.637Z,27.27
2017-05-30T10:52:03.601Z,27.25
2017-05-30T10:53:12.821Z,27.14
2017-05-30T10:54:21.781Z,27.07
2017-05-30T10:55:30.749Z,27.04
2017-05-30T10:56:39.715Z,26.82
2017-05-30T10:57:48.683Z,26.72
2017-05-30T10:58:57.949Z,26.57
2017-05-30T11:00:06.921Z,26.4
2017-05-30T11:01:16.210Z,26.3
2017-05-30T11:02:25.177Z,26.17
2017-05-30T11:03:34.141Z,25.97
2017-05-30T11:04:43.356Z,25.85
2017-05-30T11:05:52.318Z,25.72
2017-05-30T11:07:01.281Z,25.52
2017-05-30T11:08:10.343Z,25.5
2017-05-30T11:09:19.305Z,25.4
2017-05-30T11:10:28.619Z,25.17
2017-05-30T11:11:37.583Z,24.34
2017-05-30T11:12:46.547Z,23.38
2017-05-30T11:13:55.928Z,22.45
2017-05-30T11:15:04.890Z,21.91
2017-05-30T11:16:14.106Z,21.49
2017-05-30T11:17:23.066Z,21.24
2017-05-30T11:18:32.037Z,21.03
2017-05-30T11:19:41.000Z,21.1
2017-05-30T11:20:49.963Z,20.99
2017-05-30T11:21:59.289Z,20.97
2017-05-30T11:23:08.256Z,20.98
2017-05-30T11:24:17.300Z,21.04
2017-05-30T11:25:26.264Z,21.13
2017-05-30T11:26:35.222Z,21.14
2017-05-30T11:27:44.436Z,21.12
2017-05-30T11:28:53.394Z,21.12
2017-05-30T11:30:02.359Z,21.04
2017-05-30T11:31:11.323Z,21.07
2017-05-30T11:32:20.287Z,21.06
2017-05-30T11:33:29.501Z,21.04
2017-05-30T11:34:38.786Z,20.98
2017-05-30T11:35:47.754Z,20.92
2017-05-30T11:36:56.715Z,20.99
2017-05-30T11:38:05.676Z,20.94
2017-05-30T11:39:14.942Z,20.87
2017-05-30T11:40:23.900Z,20.85
2017-05-30T11:41:32.871Z,20.85
2017-05-30T11:42:41.831Z,20.8
2017-05-30T11:43:50.792Z,20.85
2017-05-30T11:45:00.009Z,20.72
2017-05-30T11:46:09.292Z,20.74
2017-05-30T11:47:18.257Z,20.79
2017-05-30T11:48:27.216Z,20.77
2017-05-30T11:49:36.175Z,20.72
2017-05-30T11:50:45.445Z,20.8
2017-05-30T11:51:54.409Z,20.58
2017-05-30T11:53:03.367Z,20.61
2017-05-30T11:54:12.332Z,20.58
2017-05-30T11:55:21.290Z,20.55
2017-05-30T11:56:30.553Z,20.39
2017-05-30T11:57:39.521Z,20.32
2017-05-30T11:58:48.485Z,20.31
2017-05-30T11:59:57.781Z,20.21
2017-05-30T12:01:06.741Z,20.16
2017-05-30T12:02:16.036Z,20.18
2017-05-30T12:03:24.995Z,20.13
2017-05-30T12:04:33.953Z,20.16
2017-05-30T12:05:42.906Z,20.17
2017-05-30T12:06:51.872Z,20.1
2017-05-30T12:08:01.452Z,20.16
2017-05-30T12:09:10.414Z,20.02
2017-05-30T12:10:19.376Z,20.01
2017-05-30T12:11:28.332Z,20.13
2017-05-30T12:12:37.298Z,20.01
2017-05-30T12:13:46.555Z,20.03
2017-05-30T12:14:55.513Z,20.01
2017-05-30T12:16:05.744Z,20.03
2017-05-30T12:17:16.079Z,19.96
2017-05-30T12:18:25.610Z,20.03
2017-05-30T12:19:35.342Z,20.01
2017-05-30T12:20:44.736Z,20.06
2017-05-30T12:21:54.212Z,20.03
2017-05-30T12:23:03.300Z,20.02
2017-05-30T12:24:12.349Z,20.05
2017-05-30T12:25:22.037Z,20.13
2017-05-30T12:26:31.001Z,20.08
2017-05-30T12:27:39.961Z,20.18
2017-05-30T12:28:48.919Z,20.2
2017-05-30T12:29:57.888Z,20.18
2017-05-30T12:31:07.109Z,20.2
2017-05-30T12:32:16.077Z,20.18
2017-05-30T12:33:25.039Z,20.14
2017-05-30T12:34:34.006Z,20.23
2017-05-30T12:35:42.970Z,20.13
2017-05-30T12:36:52.231Z,20.29
2017-05-30T12:38:01.192Z,20.26
2017-05-30T12:39:10.164Z,20.29
2017-05-30T12:40:19.121Z,20.29
2017-05-30T12:41:28.410Z,20.33
2017-05-30T12:42:37.629Z,20.32
2017-05-30T12:43:46.590Z,20.38
2017-05-30T12:44:55.554Z,20.38
2017-05-30T12:46:04.520Z,20.39
2017-05-30T12:47:13.485Z,20.51
2017-05-30T12:48:22.700Z,20.47
2017-05-30T12:49:31.664Z,20.62
2017-05-30T12:50:40.625Z,20.62
2017-05-30T12:51:49.590Z,20.62
2017-05-30T12:52:58.556Z,20.57
2017-05-30T12:54:07.768Z,20.64
2017-05-30T12:55:16.730Z,20.61
2017-05-30T12:56:25.692Z,20.73
2017-05-30T12:57:34.658Z,20.74
2017-05-30T12:58:43.617Z,20.88
2017-05-30T12:59:52.828Z,20.85
2017-05-30T13:01:01.788Z,20.91
2017-05-30T13:02:10.749Z,20.92
2017-05-30T13:03:19.772Z,20.99
2017-05-30T13:04:28.732Z,21.07
2017-05-30T13:05:37.997Z,20.97
2017-05-30T13:06:46.967Z,20.99
2017-05-30T13:07:55.928Z,21.14
2017-05-30T13:09:04.885Z,21.09
2017-05-30T13:10:13.931Z,21.14
2017-05-30T13:11:23.196Z,21.22
2017-05-30T13:12:32.162Z,21.21
2017-05-30T13:13:41.122Z,21.35
2017-05-30T13:14:50.101Z,21.35
2017-05-30T13:15:59.126Z,21.42
2017-05-30T13:17:08.663Z,21.47
2017-05-30T13:18:17.959Z,21.64
2017-05-30T13:19:26.932Z,21.65
2017-05-30T13:20:35.894Z,21.68
2017-05-30T13:21:44.861Z,21.62
2017-05-30T13:22:54.075Z,21.72
2017-05-30T13:24:03.040Z,21.69
2017-05-30T13:25:12.092Z,21.75
2017-05-30T13:26:21.054Z,21.74
2017-05-30T13:27:30.017Z,21.77
2017-05-30T13:28:39.845Z,21.83
2017-05-30T13:29:48.804Z,21.8
2017-05-30T13:30:57.773Z,21.77
2017-05-30T13:32:06.739Z,21.79
2017-05-30T13:33:15.709Z,21.79
2017-05-30T13:34:24.919Z,21.8
2017-05-30T13:35:33.885Z,21.83
2017-05-30T13:36:42.844Z,21.79
2017-05-30T13:37:51.804Z,21.64
2017-05-30T13:39:00.765Z,21.71
2017-05-30T13:40:09.981Z,21.72
2017-05-30T13:41:18.941Z,21.62
2017-05-30T13:42:27.903Z,21.62
2017-05-30T13:43:37.210Z,21.59
2017-05-30T13:44:46.256Z,21.64
2017-05-30T13:45:55.806Z,21.75
2017-05-30T13:47:04.769Z,21.8
2017-05-30T13:48:13.735Z,21.88
2017-05-30T13:49:22.707Z,21.99
2017-05-30T13:50:31.670Z,22.1
2017-05-30T13:51:40.991Z,22.2
2017-05-30T13:52:49.952Z,22.12
2017-05-30T13:53:58.916Z,22.03
2017-05-30T13:55:07.881Z,22
2017-05-30T13:56:16.842Z,21.92
2017-05-30T13:57:26.054Z,21.9
2017-05-30T13:58:35.013Z,21.88
2017-05-30T13:59:44.026Z,21.84
2017-05-30T14:00:52.998Z,21.98
2017-05-30T14:02:01.975Z,21.94
2017-05-30T14:03:11.187Z,22.12
2017-05-30T14:04:20.148Z,22.17
2017-05-30T14:05:29.112Z,22.03
2017-05-30T14:06:38.076Z,22.03
2017-05-30T14:07:47.042Z,21.92
2017-05-30T14:08:56.255Z,21.88
2017-05-30T14:10:05.226Z,21.94
2017-05-30T14:11:14.196Z,21.96
2017-05-30T14:12:23.162Z,22.03
2017-05-30T14:13:32.132Z,22.18
2017-05-30T14:14:41.759Z,22.15
2017-05-30T14:15:50.727Z,22.2
2017-05-30T14:16:59.685Z,22.15
2017-05-30T14:18:08.652Z,22.12
2017-05-30T14:19:17.622Z,21.99
2017-05-30T14:20:26.888Z,22.12
2017-05-30T14:21:35.861Z,22.07
2017-05-30T14:22:44.831Z,22.05
2017-05-30T14:23:53.855Z,22.06
2017-05-30T14:25:02.822Z,22.03
2017-05-30T14:26:12.039Z,22.09
2017-05-30T14:27:21.003Z,22.18
2017-05-30T14:28:29.970Z,22.25
2017-05-30T14:29:39.059Z,22.36
2017-05-30T14:30:48.307Z,22.35
2017-05-30T14:31:57.591Z,22.36
2017-05-30T14:33:06.590Z,22.49
2017-05-30T14:34:15.573Z,22.52
2017-05-30T14:35:24.575Z,22.46
2017-05-30T14:36:33.571Z,22.47
2017-05-30T14:37:42.809Z,22.55
2017-05-30T14:38:51.796Z,22.57
2017-05-30T14:40:00.777Z,22.54
2017-05-30T14:41:10.300Z,22.61
2017-05-30T14:42:19.544Z,22.73
2017-05-30T14:43:28.768Z,22.83
2017-05-30T14:44:37.738Z,22.83
2017-05-30T14:45:46.730Z,22.88
2017-05-30T14:46:55.690Z,22.95
2017-05-30T14:48:04.662Z,23.04
2017-05-30T14:49:14.229Z,23.1
2017-05-30T14:50:23.193Z,23.13
2017-05-30T14:51:32.158Z,23.05
2017-05-30T14:52:41.128Z,23.12
2017-05-30T14:53:50.424Z,23.07
2017-05-30T14:54:59.635Z,23.13